createdAt,value
2022-09-27T00:00:39.419Z,6.20
2022-09-27T00:01:39.466Z,6.20
2022-09-27T00:02:39.466Z,4.70
2022-09-27T00:03:39.426Z,7.00
2022-09-27T00:04:39.391Z,5.80
2022-09-27T00:05:40.390Z,5.90
2022-09-27T00:06:41.003Z,6.20
2022-09-27T00:07:39.423Z,9.00
2022-09-27T00:08:39.330Z,5.70
2022-09-27T00:09:39.327Z,4.70
2022-09-27T00:10:39.321Z,8.70
2022-09-27T00:11:39.371Z,5.30
2022-09-27T00:12:39.319Z,6.40
2022-09-27T00:13:39.800Z,6.80
2022-09-27T00:14:39.241Z,4.90
2022-09-27T00:15:39.312Z,6.20
2022-09-27T00:16:39.262Z,5.30
2022-09-27T00:17:39.236Z,7.00
2022-09-27T00:18:39.215Z,6.00
2022-09-27T00:19:39.231Z,6.10
2022-09-27T00:20:39.203Z,8.20
2022-09-27T00:21:39.199Z,5.40
2022-09-27T00:22:40.215Z,4.50
2022-09-27T00:23:39.219Z,7.20
2022-09-27T00:24:39.202Z,9.70
2022-09-27T00:25:39.200Z,4.90
2022-09-27T00:26:40.780Z,5.00
2022-09-27T00:27:39.144Z,5.20
2022-09-27T00:28:39.139Z,6.20
2022-09-27T00:29:39.144Z,7.30
2022-09-27T00:30:39.208Z,5.10
2022-09-27T00:31:39.138Z,5.40
2022-09-27T00:32:39.187Z,6.70
2022-09-27T00:33:39.071Z,5.40
2022-09-27T00:34:39.116Z,4.90
2022-09-27T00:35:39.000Z,3.80
2022-09-27T00:36:39.035Z,4.00
2022-09-27T00:37:39.036Z,4.80
2022-09-27T00:38:39.016Z,5.70
2022-09-27T00:39:38.976Z,5.10
2022-09-27T00:40:39.055Z,4.50
2022-09-27T00:41:39.016Z,5.00
2022-09-27T00:42:38.956Z,4.50
2022-09-27T00:43:39.065Z,5.60
2022-09-27T00:44:38.941Z,7.90
2022-09-27T00:45:38.897Z,6.10
2022-09-27T00:46:38.981Z,5.80
2022-09-27T00:47:39.368Z,7.80
2022-09-27T00:48:38.912Z,9.20
2022-09-27T00:49:38.904Z,7.40
2022-09-27T00:50:38.881Z,6.80
2022-09-27T00:51:38.852Z,8.40
2022-09-27T00:52:38.858Z,11.80
2022-09-27T00:53:38.813Z,7.50
2022-09-27T00:54:38.866Z,6.60
2022-09-27T00:55:38.850Z,6.90
2022-09-27T00:56:38.820Z,8.50
2022-09-27T00:57:39.028Z,9.50
2022-09-27T00:58:38.772Z,8.80
2022-09-27T00:59:38.794Z,6.80
2022-09-27T01:00:38.752Z,7.80
2022-09-27T01:01:38.825Z,10.10
2022-09-27T01:02:39.409Z,8.00
2022-09-27T01:03:38.717Z,8.60
2022-09-27T01:04:38.770Z,7.20
2022-09-27T01:05:38.745Z,8.20
2022-09-27T01:06:38.674Z,10.40
2022-09-27T01:07:38.686Z,7.10
2022-09-27T01:08:39.680Z,8.30
2022-09-27T01:09:38.652Z,9.10
2022-09-27T01:10:38.677Z,11.20
2022-09-27T01:11:38.617Z,9.70
2022-09-27T01:12:38.637Z,10.10
2022-09-27T01:13:38.710Z,8.60
2022-09-27T01:14:38.626Z,10.60
2022-09-27T01:15:38.689Z,11.70
2022-09-27T01:16:38.686Z,7.50
2022-09-27T01:17:38.586Z,9.90
2022-09-27T01:18:38.549Z,12.30
2022-09-27T01:19:38.628Z,9.90
2022-09-27T01:20:38.554Z,8.10
2022-09-27T01:21:38.533Z,10.80
2022-09-27T01:22:38.519Z,11.00
2022-09-27T01:23:38.522Z,9.70
2022-09-27T01:24:38.546Z,9.70
2022-09-27T01:25:38.494Z,10.20
2022-09-27T01:26:38.516Z,12.80
2022-09-27T01:27:38.486Z,10.10
2022-09-27T01:28:38.439Z,13.20
2022-09-27T01:29:39.422Z,11.60
2022-09-27T01:30:38.479Z,7.90
2022-09-27T01:31:38.489Z,8.70
2022-09-27T01:32:38.431Z,9.70
2022-09-27T01:33:38.525Z,11.00
2022-09-27T01:34:38.354Z,9.30
2022-09-27T01:35:38.345Z,8.60
2022-09-27T01:36:38.390Z,11.40
2022-09-27T01:37:38.334Z,9.30
2022-09-27T01:38:38.363Z,11.30
2022-09-27T01:39:38.468Z,7.70
2022-09-27T01:40:39.388Z,9.60
2022-09-27T01:41:39.336Z,7.90
2022-09-27T01:42:38.287Z,9.70
2022-09-27T01:43:38.255Z,15.90
2022-09-27T01:44:38.272Z,15.80
2022-09-27T01:45:38.278Z,10.10
2022-09-27T01:46:38.331Z,11.40
2022-09-27T01:47:38.297Z,9.40
2022-09-27T01:48:38.219Z,10.50
2022-09-27T01:49:38.212Z,15.10
2022-09-27T01:50:38.207Z,13.70
2022-09-27T01:51:38.182Z,14.70
2022-09-27T01:52:39.309Z,11.90
2022-09-27T01:53:38.151Z,11.70
2022-09-27T01:54:38.193Z,11.80
2022-09-27T01:55:38.155Z,14.30
2022-09-27T01:56:38.173Z,11.60
2022-09-27T01:57:38.115Z,10.70
2022-09-27T01:58:38.103Z,14.60
2022-09-27T01:59:38.104Z,13.80
2022-09-27T02:00:38.154Z,11.90
2022-09-27T02:01:38.777Z,14.70
2022-09-27T02:02:38.098Z,12.50
2022-09-27T02:03:38.067Z,12.40
2022-09-27T02:04:38.052Z,13.20
2022-09-27T02:05:38.067Z,14.20
2022-09-27T02:06:38.020Z,14.00
2022-09-27T02:07:37.997Z,13.10
2022-09-27T02:08:37.988Z,14.70
2022-09-27T02:09:37.982Z,13.40
2022-09-27T02:10:37.984Z,10.70
2022-09-27T02:11:38.000Z,13.70
2022-09-27T02:12:37.943Z,13.60
2022-09-27T02:13:37.939Z,13.20
2022-09-27T02:14:37.917Z,12.10
2022-09-27T02:15:37.968Z,13.60
2022-09-27T02:16:37.897Z,14.30
2022-09-27T02:17:37.912Z,15.50
2022-09-27T02:18:37.857Z,16.40
2022-09-27T02:19:37.868Z,11.40
2022-09-27T02:20:38.852Z,14.80
2022-09-27T02:21:37.859Z,16.60
2022-09-27T02:22:37.824Z,14.20
2022-09-27T02:23:37.788Z,14.40
2022-09-27T02:24:37.814Z,12.60
2022-09-27T02:25:37.853Z,13.50
2022-09-27T02:26:37.817Z,12.20
2022-09-27T02:27:37.789Z,12.50
2022-09-27T02:28:37.801Z,13.80
2022-09-27T02:29:37.766Z,12.80
2022-09-27T02:30:37.792Z,12.00
2022-09-27T02:31:37.762Z,15.10
2022-09-27T02:32:37.734Z,14.30
2022-09-27T02:33:37.725Z,11.60
2022-09-27T02:34:37.709Z,16.80
2022-09-27T02:35:37.709Z,12.80
2022-09-27T02:36:37.705Z,14.20
2022-09-27T02:37:37.689Z,15.10
2022-09-27T02:38:37.665Z,13.30
2022-09-27T02:39:37.701Z,12.90
2022-09-27T02:40:37.645Z,11.30
2022-09-27T02:41:37.641Z,14.10
2022-09-27T02:42:37.609Z,14.40
2022-09-27T02:43:37.625Z,12.70
2022-09-27T02:44:37.624Z,14.20
2022-09-27T02:45:37.602Z,12.60
2022-09-27T02:46:37.580Z,12.00
2022-09-27T02:47:37.582Z,15.80
2022-09-27T02:48:37.514Z,14.10
2022-09-27T02:49:37.575Z,13.80
2022-09-27T02:50:37.534Z,16.60
2022-09-27T02:51:37.525Z,16.70
2022-09-27T02:52:37.526Z,16.50
2022-09-27T02:53:37.522Z,12.60
2022-09-27T02:54:37.494Z,15.10
2022-09-27T02:55:37.462Z,16.30
2022-09-27T02:56:37.433Z,15.00
2022-09-27T02:57:37.434Z,11.10
2022-09-27T02:58:37.468Z,13.80
2022-09-27T02:59:37.474Z,15.40
2022-09-27T03:00:37.458Z,15.40
2022-09-27T03:01:37.543Z,20.10
2022-09-27T03:02:37.502Z,16.80
2022-09-27T03:03:37.398Z,21.20
2022-09-27T03:04:37.379Z,16.50
2022-09-27T03:05:37.354Z,20.30
2022-09-27T03:06:37.366Z,18.80
2022-09-27T03:07:37.314Z,19.00
2022-09-27T03:08:37.390Z,18.20
2022-09-27T03:09:37.303Z,21.40
2022-09-27T03:10:37.391Z,19.90
2022-09-27T03:11:37.300Z,18.30
2022-09-27T03:12:37.278Z,19.40
2022-09-27T03:13:55.500Z,21.60
2022-09-27T03:14:39.256Z,20.20
2022-09-27T03:15:37.239Z,22.90
2022-09-27T03:16:37.321Z,16.60
2022-09-27T03:17:37.231Z,22.20
2022-09-27T03:18:37.204Z,22.10
2022-09-27T03:19:37.203Z,17.90
2022-09-27T03:20:37.169Z,22.10
2022-09-27T03:21:37.179Z,19.00
2022-09-27T03:22:37.168Z,19.70
2022-09-27T03:23:37.171Z,17.00
2022-09-27T03:24:37.135Z,17.30
2022-09-27T03:25:37.160Z,17.20
2022-09-27T03:26:37.280Z,15.00
2022-09-27T03:27:37.097Z,16.40
2022-09-27T03:28:37.088Z,17.90
2022-09-27T03:29:37.132Z,17.20
2022-09-27T03:30:37.130Z,16.90
2022-09-27T03:31:37.096Z,19.20
2022-09-27T03:32:40.823Z,17.10
2022-09-27T03:33:38.044Z,15.80
2022-09-27T03:34:37.044Z,22.10
2022-09-27T03:35:37.025Z,18.20
2022-09-27T03:36:37.004Z,19.50
2022-09-27T03:37:37.027Z,18.50
2022-09-27T03:38:36.963Z,15.90
2022-09-27T03:39:36.972Z,18.50
2022-09-27T03:40:37.038Z,17.30
2022-09-27T03:41:37.058Z,18.90
2022-09-27T03:42:37.078Z,13.20
2022-09-27T03:43:36.932Z,11.10
2022-09-27T03:44:36.929Z,11.00
2022-09-27T03:45:36.873Z,16.90
2022-09-27T03:46:36.952Z,12.80
2022-09-27T03:47:36.932Z,11.20
2022-09-27T03:48:36.877Z,11.20
2022-09-27T03:49:36.825Z,8.80
2022-09-27T03:50:36.865Z,8.00
2022-09-27T03:51:36.869Z,11.20
2022-09-27T03:52:36.853Z,8.40
2022-09-27T03:53:36.801Z,9.10
2022-09-27T03:54:36.845Z,6.70
2022-09-27T03:55:36.784Z,3.40
2022-09-27T03:56:36.794Z,4.50
2022-09-27T03:57:36.846Z,2.60
2022-09-27T03:58:36.745Z,3.20
2022-09-27T03:59:36.782Z,2.30
2022-09-27T04:00:36.709Z,3.00
2022-09-27T04:01:36.903Z,2.20
2022-09-27T04:02:36.784Z,2.50
2022-09-27T04:03:38.275Z,2.50
2022-09-27T04:04:36.653Z,2.00
2022-09-27T04:05:36.669Z,1.90
2022-09-27T04:06:37.709Z,2.30
2022-09-27T04:07:36.666Z,2.30
2022-09-27T04:08:36.671Z,2.20
2022-09-27T04:09:39.973Z,3.20
2022-09-27T04:10:37.622Z,7.90
2022-09-27T04:11:36.678Z,2.60
2022-09-27T04:12:36.660Z,2.60
2022-09-27T04:13:36.602Z,2.90
2022-09-27T04:14:36.623Z,2.10
2022-09-27T04:15:36.666Z,3.00
2022-09-27T04:16:36.693Z,2.60
2022-09-27T04:17:36.627Z,2.20
2022-09-27T04:18:36.584Z,2.10
2022-09-27T04:19:36.595Z,1.90
2022-09-27T04:20:36.516Z,1.90
2022-09-27T04:21:36.594Z,4.60
2022-09-27T04:22:36.586Z,3.00
2022-09-27T04:23:36.510Z,5.20
2022-09-27T04:24:36.512Z,4.70
2022-09-27T04:25:36.472Z,3.80
2022-09-27T04:26:36.501Z,3.10
2022-09-27T04:27:36.449Z,3.00
2022-09-27T04:28:36.478Z,2.20
2022-09-27T04:29:36.436Z,3.80
2022-09-27T04:30:36.536Z,4.90
2022-09-27T04:31:36.415Z,5.00
2022-09-27T04:32:36.403Z,2.00
2022-09-27T04:33:37.411Z,5.60
2022-09-27T04:34:36.364Z,2.10
2022-09-27T04:35:36.423Z,4.50
2022-09-27T04:36:36.367Z,5.50
2022-09-27T04:37:36.354Z,4.80
2022-09-27T04:38:36.325Z,4.00
2022-09-27T04:39:36.331Z,4.60
2022-09-27T04:40:36.397Z,2.70
2022-09-27T04:41:36.299Z,5.70
2022-09-27T04:42:36.280Z,3.60
2022-09-27T04:43:37.283Z,5.60
2022-09-27T04:44:36.260Z,3.30
2022-09-27T04:45:36.231Z,3.90
2022-09-27T04:46:36.325Z,4.40
2022-09-27T04:47:36.291Z,3.90
2022-09-27T04:48:36.215Z,2.40
2022-09-27T04:49:36.215Z,4.20
2022-09-27T04:50:36.664Z,5.30
2022-09-27T04:51:36.191Z,4.10
2022-09-27T04:52:36.219Z,2.90
2022-09-27T04:53:36.121Z,4.00
2022-09-27T04:54:36.160Z,2.60
2022-09-27T04:55:36.139Z,5.50
2022-09-27T04:56:36.107Z,1.80
2022-09-27T04:57:36.132Z,4.60
2022-09-27T04:58:36.084Z,4.20
2022-09-27T04:59:36.144Z,4.60
2022-09-27T05:00:36.074Z,5.60
2022-09-27T05:01:36.101Z,4.00
2022-09-27T05:02:36.191Z,4.10
2022-09-27T05:03:36.084Z,1.80
2022-09-27T05:04:36.119Z,3.20
2022-09-27T05:05:36.073Z,3.10
2022-09-27T05:06:36.057Z,2.80
2022-09-27T05:07:36.012Z,5.10
2022-09-27T05:08:35.973Z,3.90
2022-09-27T05:09:35.989Z,3.70
2022-09-27T05:10:36.985Z,3.20
2022-09-27T05:11:35.965Z,5.20
2022-09-27T05:12:35.939Z,7.90
2022-09-27T05:13:36.017Z,5.60
2022-09-27T05:14:35.946Z,4.80
2022-09-27T05:15:35.921Z,6.50
2022-09-27T05:16:36.024Z,4.30
2022-09-27T05:17:35.894Z,3.10
2022-09-27T05:18:35.896Z,4.00
2022-09-27T05:19:35.962Z,5.30
2022-09-27T05:20:35.893Z,5.40
2022-09-27T05:21:35.869Z,4.30
2022-09-27T05:22:35.822Z,4.60
2022-09-27T05:23:35.841Z,3.10
2022-09-27T05:24:35.801Z,7.20
2022-09-27T05:25:35.812Z,4.30
2022-09-27T05:26:35.838Z,3.30
2022-09-27T05:27:35.777Z,3.70
2022-09-27T05:28:35.770Z,6.50
2022-09-27T05:29:35.783Z,5.10
2022-09-27T05:30:35.799Z,4.90
2022-09-27T05:31:35.790Z,5.80
2022-09-27T05:32:35.858Z,3.40
2022-09-27T05:33:35.705Z,7.40
2022-09-27T05:34:35.692Z,3.40
2022-09-27T05:35:35.692Z,3.20
2022-09-27T05:36:35.751Z,4.20
2022-09-27T05:37:35.690Z,4.60
2022-09-27T05:38:35.651Z,3.00
2022-09-27T05:39:35.658Z,6.50
2022-09-27T05:40:41.141Z,6.90
2022-09-27T05:41:37.780Z,7.30
2022-09-27T05:42:35.630Z,6.90
2022-09-27T05:43:35.576Z,4.30
2022-09-27T05:44:35.614Z,3.40
2022-09-27T05:45:35.569Z,6.00
2022-09-27T05:46:35.666Z,6.40
2022-09-27T05:47:35.566Z,8.30
2022-09-27T05:48:35.576Z,12.60
2022-09-27T05:49:35.538Z,11.00
2022-09-27T05:50:35.592Z,9.10
2022-09-27T05:51:35.539Z,8.10
2022-09-27T05:52:35.527Z,8.70
2022-09-27T05:53:35.489Z,8.90
2022-09-27T05:54:35.490Z,7.30
2022-09-27T05:55:35.465Z,7.70
2022-09-27T05:56:35.440Z,7.40
2022-09-27T05:57:35.443Z,8.60
2022-09-27T05:58:35.430Z,5.30
2022-09-27T05:59:35.405Z,5.10
2022-09-27T06:00:35.435Z,6.20
2022-09-27T06:01:35.508Z,5.70
2022-09-27T06:02:35.454Z,3.20
2022-09-27T06:03:35.352Z,3.40
2022-09-27T06:04:35.340Z,4.30
2022-09-27T06:05:35.343Z,6.70
2022-09-27T06:06:35.392Z,3.30
2022-09-27T06:07:35.308Z,4.30
2022-09-27T06:08:35.317Z,4.80
2022-09-27T06:09:35.307Z,3.10
2022-09-27T06:10:35.306Z,1.70
2022-09-27T06:11:35.296Z,3.80
2022-09-27T06:12:35.292Z,1.90
2022-09-27T06:13:35.260Z,2.60
2022-09-27T06:14:35.248Z,3.60
2022-09-27T06:15:35.231Z,2.60
2022-09-27T06:16:35.267Z,4.40
2022-09-27T06:17:35.225Z,3.30
2022-09-27T06:18:35.280Z,2.20
2022-09-27T06:19:35.218Z,2.80
2022-09-27T06:20:35.201Z,2.10
2022-09-27T06:21:35.200Z,3.10
2022-09-27T06:22:35.166Z,1.50
2022-09-27T06:23:35.196Z,1.70
2022-09-27T06:24:35.172Z,1.50
2022-09-27T06:25:35.164Z,1.30
2022-09-27T06:26:35.130Z,1.80
2022-09-27T06:27:35.144Z,1.60
2022-09-27T06:28:35.078Z,1.70
2022-09-27T06:29:35.049Z,4.10
2022-09-27T06:30:35.090Z,3.40
2022-09-27T06:31:35.093Z,2.90
2022-09-27T06:32:35.063Z,1.50
2022-09-27T06:33:35.789Z,3.50
2022-09-27T06:34:35.128Z,2.70
2022-09-27T06:35:35.023Z,4.10
2022-09-27T06:36:34.995Z,3.40
2022-09-27T06:37:34.988Z,5.20
2022-09-27T06:38:34.941Z,2.00
2022-09-27T06:39:34.946Z,3.70
2022-09-27T06:40:35.040Z,2.60
2022-09-27T06:41:34.937Z,4.40
2022-09-27T06:42:34.940Z,2.90
2022-09-27T06:43:34.888Z,2.60
2022-09-27T06:44:34.949Z,5.60
2022-09-27T06:45:34.914Z,5.20
2022-09-27T06:46:34.874Z,4.10
2022-09-27T06:47:35.842Z,2.90
2022-09-27T06:48:34.874Z,4.40
2022-09-27T06:49:34.821Z,3.60
2022-09-27T06:50:34.824Z,2.80
2022-09-27T06:51:34.817Z,2.30
2022-09-27T06:52:34.806Z,5.40
2022-09-27T06:53:34.807Z,6.40
2022-09-27T06:54:34.771Z,3.30
2022-09-27T06:55:34.810Z,2.80
2022-09-27T06:56:34.786Z,3.30
2022-09-27T06:57:35.822Z,3.20
2022-09-27T06:58:34.734Z,3.20
2022-09-27T06:59:34.721Z,3.20
2022-09-27T07:00:34.706Z,4.40
2022-09-27T07:01:34.796Z,4.90
2022-09-27T07:02:34.706Z,5.90
2022-09-27T07:03:40.122Z,3.80
2022-09-27T07:04:36.677Z,2.90
2022-09-27T07:05:34.663Z,3.70
2022-09-27T07:06:34.658Z,3.80
2022-09-27T07:07:34.668Z,4.00
2022-09-27T07:08:34.634Z,7.10
2022-09-27T07:09:34.614Z,6.40
2022-09-27T07:10:34.613Z,4.30
2022-09-27T07:11:34.594Z,3.80
2022-09-27T07:12:34.567Z,4.40
2022-09-27T07:13:34.653Z,4.30
2022-09-27T07:14:35.608Z,2.90
2022-09-27T07:15:34.551Z,5.60
2022-09-27T07:16:34.559Z,8.30
2022-09-27T07:17:34.550Z,2.70
2022-09-27T07:18:34.550Z,3.80
2022-09-27T07:19:34.539Z,5.30
2022-09-27T07:20:34.475Z,4.20
2022-09-27T07:21:34.534Z,3.40
2022-09-27T07:22:34.498Z,4.70
2022-09-27T07:23:34.458Z,6.90
2022-09-27T07:24:34.451Z,5.80
2022-09-27T07:25:34.423Z,3.60
2022-09-27T07:26:34.411Z,3.90
2022-09-27T07:27:37.087Z,4.40
2022-09-27T07:28:34.446Z,5.60
2022-09-27T07:29:34.409Z,6.80
2022-09-27T07:30:35.233Z,5.60
2022-09-27T07:31:34.493Z,3.70
2022-09-27T07:32:34.424Z,4.40
2022-09-27T07:33:34.355Z,2.60
2022-09-27T07:34:34.349Z,4.00
2022-09-27T07:35:34.346Z,5.70
2022-09-27T07:36:34.327Z,4.90
2022-09-27T07:37:34.308Z,4.50
2022-09-27T07:38:34.320Z,4.00
2022-09-27T07:39:34.284Z,4.40
2022-09-27T07:40:34.332Z,6.10
2022-09-27T07:41:34.268Z,5.90
2022-09-27T07:42:34.244Z,5.30
2022-09-27T07:43:34.285Z,4.80
2022-09-27T07:44:34.242Z,4.00
2022-09-27T07:45:34.547Z,3.90
2022-09-27T07:46:34.192Z,2.80
2022-09-27T07:47:34.218Z,2.20
2022-09-27T07:48:34.227Z,4.20
2022-09-27T07:49:34.264Z,3.40
2022-09-27T07:50:34.143Z,3.70
2022-09-27T07:51:34.176Z,2.30
2022-09-27T07:52:34.132Z,5.70
2022-09-27T07:53:34.169Z,6.70
2022-09-27T07:54:34.224Z,5.60
2022-09-27T07:55:34.112Z,5.20
2022-09-27T07:56:34.168Z,5.30
2022-09-27T07:57:34.147Z,5.80
2022-09-27T07:58:34.112Z,3.00
2022-09-27T07:59:34.141Z,3.10
2022-09-27T08:00:34.109Z,2.40
2022-09-27T08:01:34.098Z,4.80
2022-09-27T08:02:34.197Z,2.50
2022-09-27T08:03:34.026Z,3.90
2022-09-27T08:04:34.073Z,3.90
2022-09-27T08:05:34.025Z,3.10
2022-09-27T08:06:34.040Z,4.80
2022-09-27T08:07:33.996Z,2.70
2022-09-27T08:08:34.021Z,2.30
2022-09-27T08:09:33.957Z,3.60
2022-09-27T08:10:34.004Z,5.70
2022-09-27T08:11:33.959Z,4.20
2022-09-27T08:12:33.950Z,5.10
2022-09-27T08:13:33.921Z,7.00
2022-09-27T08:14:36.539Z,3.90
2022-09-27T08:15:34.877Z,4.50
2022-09-27T08:16:33.898Z,5.70
2022-09-27T08:17:33.844Z,5.00
2022-09-27T08:18:33.881Z,5.90
2022-09-27T08:19:33.826Z,3.30
2022-09-27T08:20:33.873Z,5.30
2022-09-27T08:21:33.862Z,4.70
2022-09-27T08:22:33.798Z,6.20
2022-09-27T08:23:33.773Z,3.70
2022-09-27T08:24:33.801Z,4.00
2022-09-27T08:25:33.779Z,5.30
2022-09-27T08:26:33.756Z,3.10
2022-09-27T08:27:33.756Z,5.00
2022-09-27T08:28:33.729Z,3.90
2022-09-27T08:29:33.750Z,4.60
2022-09-27T08:30:33.751Z,5.20
2022-09-27T08:31:33.747Z,4.30
2022-09-27T08:32:33.685Z,6.50
2022-09-27T08:33:39.139Z,3.50
2022-09-27T08:34:33.714Z,5.90
2022-09-27T08:35:33.716Z,8.00
2022-09-27T08:36:33.675Z,4.30
2022-09-27T08:37:33.859Z,5.10
2022-09-27T08:38:33.618Z,4.20
2022-09-27T08:39:34.048Z,8.70
2022-09-27T08:40:33.630Z,5.60
2022-09-27T08:41:33.747Z,6.80
2022-09-27T08:42:33.759Z,4.50
2022-09-27T08:43:33.579Z,3.80
2022-09-27T08:44:33.608Z,8.10
2022-09-27T08:45:33.638Z,5.40
2022-09-27T08:46:33.611Z,6.10
2022-09-27T08:47:33.556Z,6.10
2022-09-27T08:48:33.587Z,6.60
2022-09-27T08:49:33.551Z,5.70
2022-09-27T08:50:38.996Z,5.10
2022-09-27T08:51:35.463Z,8.10
2022-09-27T08:52:33.523Z,6.30
2022-09-27T08:53:33.572Z,8.00
2022-09-27T08:54:33.475Z,10.60
2022-09-27T08:55:33.559Z,6.30
2022-09-27T08:56:33.431Z,6.80
2022-09-27T08:57:33.475Z,6.10
2022-09-27T08:58:33.472Z,5.40
2022-09-27T08:59:33.476Z,5.70
2022-09-27T09:00:33.452Z,4.70
2022-09-27T09:01:33.425Z,6.80
2022-09-27T09:02:33.424Z,7.90
2022-09-27T09:03:33.356Z,9.40
2022-09-27T09:04:33.430Z,9.10
2022-09-27T09:05:33.352Z,6.20
2022-09-27T09:06:33.343Z,8.50
2022-09-27T09:07:33.354Z,6.60
2022-09-27T09:08:33.288Z,5.50
2022-09-27T09:09:33.300Z,6.80
2022-09-27T09:10:33.323Z,7.10
2022-09-27T09:11:33.304Z,6.10
2022-09-27T09:12:33.321Z,7.40
2022-09-27T09:13:33.316Z,12.10
2022-09-27T09:14:33.250Z,5.80
2022-09-27T09:15:33.300Z,7.00
2022-09-27T09:16:33.264Z,3.90
2022-09-27T09:17:33.228Z,6.00
2022-09-27T09:18:33.258Z,7.40
2022-09-27T09:19:33.214Z,8.40
2022-09-27T09:20:33.253Z,7.10
2022-09-27T09:21:33.177Z,6.20
2022-09-27T09:22:33.196Z,8.50
2022-09-27T09:23:33.137Z,5.00
2022-09-27T09:24:33.148Z,9.70
2022-09-27T09:25:33.273Z,4.40
2022-09-27T09:26:33.109Z,5.80
2022-09-27T09:27:33.173Z,6.00
2022-09-27T09:28:33.177Z,9.10
2022-09-27T09:29:33.119Z,5.10
2022-09-27T09:30:33.085Z,7.60
2022-09-27T09:31:33.058Z,7.50
2022-09-27T09:32:33.069Z,6.40
2022-09-27T09:33:33.125Z,6.10
2022-09-27T09:34:33.033Z,9.50
2022-09-27T09:35:33.037Z,7.10
2022-09-27T09:36:33.044Z,6.60
2022-09-27T09:37:33.027Z,5.70
2022-09-27T09:38:33.029Z,5.90
2022-09-27T09:39:33.025Z,9.00
2022-09-27T09:40:33.026Z,5.30
2022-09-27T09:41:32.973Z,8.90
2022-09-27T09:42:33.182Z,5.90
2022-09-27T09:43:33.093Z,6.20
2022-09-27T09:44:32.978Z,4.90
2022-09-27T09:45:32.992Z,4.70
2022-09-27T09:46:33.846Z,5.60
2022-09-27T09:47:32.884Z,6.70
2022-09-27T09:48:32.889Z,5.50
2022-09-27T09:49:32.914Z,5.10
2022-09-27T09:50:32.882Z,6.40
2022-09-27T09:51:32.867Z,6.20
2022-09-27T09:52:32.926Z,7.60
2022-09-27T09:53:32.813Z,7.90
2022-09-27T09:54:32.895Z,7.80
2022-09-27T09:55:32.783Z,8.50
2022-09-27T09:56:32.807Z,7.90
2022-09-27T09:57:32.920Z,6.90
2022-09-27T09:58:32.766Z,6.70
2022-09-27T09:59:32.755Z,7.80
2022-09-27T10:00:32.772Z,6.70
2022-09-27T10:01:32.741Z,5.80
2022-09-27T10:02:32.850Z,6.30
2022-09-27T10:03:32.716Z,8.40
2022-09-27T10:04:32.740Z,4.60
2022-09-27T10:05:32.706Z,6.40
2022-09-27T10:06:32.811Z,8.30
2022-09-27T10:07:32.664Z,6.70
2022-09-27T10:08:32.673Z,8.70
2022-09-27T10:09:32.635Z,8.00
2022-09-27T10:10:32.623Z,5.60
2022-09-27T10:11:33.775Z,11.70
2022-09-27T10:12:32.675Z,9.20
2022-09-27T10:13:32.640Z,5.90
2022-09-27T10:14:32.584Z,6.30
2022-09-27T10:15:32.607Z,5.50
2022-09-27T10:16:32.651Z,4.70
2022-09-27T10:17:32.535Z,2.10
2022-09-27T10:18:32.599Z,3.40
2022-09-27T10:19:32.509Z,2.90
2022-09-27T10:20:32.538Z,3.40
2022-09-27T10:21:32.506Z,3.50
2022-09-27T10:22:32.519Z,4.20
2022-09-27T10:23:32.459Z,2.70
2022-09-27T10:24:32.468Z,6.00
2022-09-27T10:25:32.471Z,4.00
2022-09-27T10:26:32.440Z,5.30
2022-09-27T10:27:32.420Z,4.50
2022-09-27T10:28:32.489Z,6.20
2022-09-27T10:29:36.990Z,5.10
2022-09-27T10:30:34.487Z,4.00
2022-09-27T10:31:32.427Z,7.10
2022-09-27T10:32:32.505Z,3.90
2022-09-27T10:33:32.380Z,4.20
2022-09-27T10:34:32.342Z,6.50
2022-09-27T10:35:32.359Z,6.00
2022-09-27T10:36:32.452Z,3.20
2022-09-27T10:37:32.317Z,3.30
2022-09-27T10:38:32.329Z,3.70
2022-09-27T10:39:32.468Z,6.80
2022-09-27T10:40:32.440Z,3.80
2022-09-27T10:41:32.301Z,3.30
2022-09-27T10:42:32.349Z,2.10
2022-09-27T10:43:32.316Z,3.70
2022-09-27T10:44:32.247Z,4.10
2022-09-27T10:45:32.285Z,3.60
2022-09-27T10:46:32.236Z,6.90
2022-09-27T10:47:32.236Z,4.00
2022-09-27T10:48:32.222Z,3.10
2022-09-27T10:49:32.192Z,2.50
2022-09-27T10:50:50.263Z,2.50
2022-09-27T10:51:34.172Z,3.30
2022-09-27T10:52:32.201Z,3.50
2022-09-27T10:53:32.227Z,5.90
2022-09-27T10:54:32.158Z,4.00
2022-09-27T10:55:32.129Z,3.40
2022-09-27T10:56:32.145Z,4.60
2022-09-27T10:57:32.146Z,5.00
2022-09-27T10:58:32.138Z,4.40
2022-09-27T10:59:32.161Z,4.70
2022-09-27T11:00:32.090Z,3.70
2022-09-27T11:01:32.070Z,3.30
2022-09-27T11:02:32.362Z,3.00
2022-09-27T11:03:32.121Z,5.70
2022-09-27T11:04:32.077Z,4.60
2022-09-27T11:05:32.761Z,4.20
2022-09-27T11:06:32.014Z,2.00
2022-09-27T11:07:32.002Z,3.20
2022-09-27T11:08:32.010Z,4.00
2022-09-27T11:09:32.094Z,3.00
2022-09-27T11:10:36.367Z,4.20
2022-09-27T11:11:34.038Z,3.70
2022-09-27T11:12:31.965Z,3.00
2022-09-27T11:13:32.010Z,5.00
2022-09-27T11:14:31.970Z,6.60
2022-09-27T11:15:31.947Z,4.10
2022-09-27T11:16:32.017Z,5.40
2022-09-27T11:17:31.902Z,3.80
2022-09-27T11:18:31.863Z,5.70
2022-09-27T11:19:32.642Z,3.80
2022-09-27T11:20:31.896Z,3.60
2022-09-27T11:21:31.795Z,4.10
2022-09-27T11:22:31.834Z,3.00
2022-09-27T11:23:31.830Z,1.80
2022-09-27T11:24:31.862Z,2.80
2022-09-27T11:25:32.161Z,3.30
2022-09-27T11:26:32.792Z,3.20
2022-09-27T11:27:31.771Z,2.50
2022-09-27T11:28:31.804Z,2.70
2022-09-27T11:29:31.733Z,2.90
2022-09-27T11:30:31.761Z,4.10
2022-09-27T11:31:31.767Z,2.90
2022-09-27T11:32:31.716Z,3.70
2022-09-27T11:33:32.332Z,4.00
2022-09-27T11:34:31.707Z,3.80
2022-09-27T11:35:31.692Z,3.80
2022-09-27T11:36:31.719Z,2.00
2022-09-27T11:37:31.666Z,1.80
2022-09-27T11:38:53.061Z,2.10
2022-09-27T11:39:33.644Z,2.30
2022-09-27T11:40:31.753Z,0.90
2022-09-27T11:41:31.588Z,1.50
2022-09-27T11:42:31.632Z,1.40
2022-09-27T11:43:31.595Z,2.40
2022-09-27T11:44:31.585Z,1.40
2022-09-27T11:45:50.327Z,1.60
2022-09-27T11:46:41.364Z,1.50
2022-09-27T11:47:32.648Z,1.40
2022-09-27T11:48:31.521Z,2.50
2022-09-27T11:49:31.560Z,3.70
2022-09-27T11:50:31.517Z,1.20
2022-09-27T11:51:31.495Z,2.60
2022-09-27T11:52:31.493Z,1.00
2022-09-27T11:53:31.486Z,1.50
2022-09-27T11:54:31.474Z,1.20
2022-09-27T11:55:31.457Z,1.40
2022-09-27T11:56:31.477Z,1.30
2022-09-27T11:57:31.434Z,2.50
2022-09-27T11:58:31.425Z,1.90
2022-09-27T11:59:31.453Z,1.20
2022-09-27T12:00:31.609Z,2.60
2022-09-27T12:01:31.500Z,1.30
2022-09-27T12:02:31.493Z,1.40
2022-09-27T12:03:31.400Z,1.30
2022-09-27T12:04:31.328Z,2.50
2022-09-27T12:05:31.377Z,1.40
2022-09-27T12:06:31.344Z,2.40
2022-09-27T12:07:31.305Z,1.20
2022-09-27T12:08:31.363Z,0.80
2022-09-27T12:09:31.330Z,1.90
2022-09-27T12:10:31.302Z,1.10
2022-09-27T12:11:31.274Z,1.00
2022-09-27T12:12:31.243Z,3.10
2022-09-27T12:13:31.273Z,1.10
2022-09-27T12:14:38.733Z,2.60
2022-09-27T12:15:32.458Z,1.40
2022-09-27T12:16:31.246Z,2.10
2022-09-27T12:17:31.186Z,1.50
2022-09-27T12:18:31.211Z,1.20
2022-09-27T12:19:31.180Z,1.90
2022-09-27T12:20:31.184Z,1.40
2022-09-27T12:21:31.150Z,2.40
2022-09-27T12:22:57.043Z,2.00
2022-09-27T12:23:36.605Z,1.20
2022-09-27T12:24:32.122Z,2.40
2022-09-27T12:25:31.093Z,1.60
2022-09-27T12:26:31.105Z,2.30
2022-09-27T12:27:31.081Z,2.00
2022-09-27T12:28:31.169Z,1.20
2022-09-27T12:29:31.242Z,1.50
2022-09-27T12:30:31.096Z,3.70
2022-09-27T12:31:31.142Z,2.70
2022-09-27T12:32:31.105Z,2.20
2022-09-27T12:33:31.046Z,1.60
2022-09-27T12:34:31.079Z,1.90
2022-09-27T12:35:30.992Z,1.90
2022-09-27T12:36:34.860Z,1.30
2022-09-27T12:37:31.992Z,1.30
2022-09-27T12:38:31.058Z,1.90
2022-09-27T12:39:30.955Z,2.00
2022-09-27T12:40:30.999Z,2.30
2022-09-27T12:41:30.956Z,4.50
2022-09-27T12:42:30.950Z,1.70
2022-09-27T12:43:30.931Z,2.20
2022-09-27T12:44:30.944Z,7.70
2022-09-27T12:45:30.916Z,1.30
2022-09-27T12:46:30.907Z,1.40
2022-09-27T12:47:30.854Z,1.30
2022-09-27T12:48:30.923Z,1.20
2022-09-27T12:49:30.905Z,1.40
2022-09-27T12:50:30.819Z,1.40
2022-09-27T12:51:30.861Z,1.10
2022-09-27T12:52:30.803Z,1.30
2022-09-27T12:53:30.799Z,2.90
2022-09-27T12:54:30.815Z,1.30
2022-09-27T12:55:30.783Z,1.20
2022-09-27T12:56:30.887Z,1.40
2022-09-27T12:57:30.745Z,2.40
2022-09-27T12:58:30.751Z,2.70
2022-09-27T12:59:30.739Z,1.30
2022-09-27T13:00:30.728Z,1.30
2022-09-27T13:01:30.810Z,2.00
2022-09-27T13:02:30.839Z,2.80
2022-09-27T13:03:30.823Z,1.60
2022-09-27T13:04:30.683Z,1.60
2022-09-27T13:05:30.683Z,1.60
2022-09-27T13:06:30.644Z,2.70
2022-09-27T13:07:31.258Z,2.30
2022-09-27T13:08:30.654Z,1.60
2022-09-27T13:09:30.623Z,1.70
2022-09-27T13:10:30.608Z,1.60
2022-09-27T13:11:30.588Z,1.60
2022-09-27T13:12:30.625Z,1.80
2022-09-27T13:13:35.632Z,3.50